Bergland, Michigan
Current Conditions -  °F | °C
As of 7:35 AM on Sunday 21 Dec 2014 (Local Time) from KIWD Reporting Station
Overcast Overcast  
Wind Chill: 21°   Ceiling: 1200
Heat Index: 30°   Visibility: 8mi
Dew Point: 27°   Wind: 12mph
Humidity: 86%   Direction: 180°S
Pressure: 29.97"   Gusts: NA
Location:  46.59°N, 89.57°W
Report Text: KIWD 211235Z AUTO 18010KT 8SM OVC012 M01/M03 A2997 RMK AO1
Loading
Personal Weather Stations






























Interactive Weather Map New forecast layout! Learn more

10-Day Weather Forecast

Advertisements
Track Severe Weather on mobile